메인 페이지
METAR-TAF:

METAR-TAF

공항 :

Vance Air Force Base, 오클라호마, 미국

위도: 36-20N, 경도: 097-55W, 고도: 398m

현재 날씨관측

예보는 19분 전, 19:56시(UTC)에 발표되었습니다.
북서16kt, 순간 최대 풍속 19kt
온도 15°C
습도 36%
기압 1023 hPa
시정: 16.1km
고도 3000ft 상공 구름 조금

METAR: KEND 201956Z 32016G19KT 10SM FEW030 15/00 A3020 RMK AO2A PK WND 31026/34 SLP229 T01521002 $

시각: 15:15 (20:15 UTC)

예보

예보는 2 시간 15분 전, 18:00시(UTC)에 발표되었습니다.
예보 대상 시간: 20일 18시부터 21일 24시까지 (UTC)
북서10kt, 순간 최대 풍속 15kt
시정 10km 이상
맑음
전환 중
20일 23시부터 20일 24시까지 (UTC)
서북서6kt
시정 10km 이상
맑음

TAF: KEND 201800Z 2018/2124 31010G15KT 9999 SKC QNH3015INS BECMG 2023/2024 30006KT 9999 SKC QNH3016INS TX16/2021Z TN05/2112Z

4,000개 이상의 공항 관측 자료 및 예보 (METAR 및 TAF 보고).

지도상에서 검색 가능한 기상관측소가 노란 점과 빨간 점으로 표시되어 있습니다.

기상관측소 명을 보려면 표시 위로 마우스를 이동하세요.

날씨 관측과 예보를 보려면 클릭하세요.

지도 변경 : 확대하려면 엑스 표시가 있는 녹색 버튼, 축소하려면 빼기 표시가 있는 녹색 버튼, 다음 페이지의 지도를 보려면 녹색 화살표를 클릭하세요.


METAR-TAF: